Easton, New York
Current Conditions -  °F | °C
As of 10:51 AM on Monday 24 Nov 2014 (Local Time) from KALB Reporting Station
Broken Clouds Broken Clouds  
Wind Chill: 63°   Ceiling: 1100
Heat Index: 63°   Visibility: 10mi
Dew Point: 59°   Wind: 17mph
Humidity: 87%   Direction: 170°S
Pressure: 29.57"   Gusts: 23mph
Location:  42.934°N, 73.6082°W
Report Text: KALB 241551Z 17015G20KT 10SM BKN011 BKN042 BKN055 17/15 A2957 RMK AO2 SLP012 T01720150
Loading
Personal Weather Stations






























Interactive Weather Map New forecast layout! Learn more

10-Day Weather Forecast

Advertisements
Track Severe Weather on mobile